Susan, Virginia
Current Conditions -  °F | °C
As of 1:55 PM on Saturday 25 Oct 2014 (Local Time) from KW75 Reporting Station
Clear Clear  
Wind Chill: 67°   Ceiling: Unl
Heat Index: 67°   Visibility: 10mi
Dew Point: 41°   Wind: 5mph
Humidity: 40%   Direction: 340°NNW
Pressure: 29.89"   Gusts: NA
Location:  37.37°N, 76.31°W
Report Text: KW75 251755Z AUTO 34004KT 10SM CLR 19/05 A2989 RMK AO1 T01930052 10193 20070
Loading
Personal Weather Stations






























Interactive Weather Map
Tropical Storm Tracking
New forecast layout! Learn more

10-Day Weather Forecast

Advertisements
Track Severe Weather on mobile